sensor_id;sensor_type;location;lat;lon;timestamp;pressure;altitude;pressure_sealevel;temperature;humidity
3082;BME280;1551;51.046;7.010;2023-04-23T00:02:47;100160.44;;;13.44;84.28
3082;BME280;1551;51.046;7.010;2023-04-23T00:05:38;100159.34;;;13.52;84.66
3082;BME280;1551;51.046;7.010;2023-04-23T00:08:27;100154.63;;;13.66;84.31
3082;BME280;1551;51.046;7.010;2023-04-23T00:11:17;100157.88;;;13.71;83.84
3082;BME280;1551;51.046;7.010;2023-04-23T00:14:06;100152.84;;;13.68;83.89
3082;BME280;1551;51.046;7.010;2023-04-23T00:16:55;100153.72;;;13.67;84.10
3082;BME280;1551;51.046;7.010;2023-04-23T00:19:44;100161.25;;;13.73;83.76
3082;BME280;1551;51.046;7.010;2023-04-23T00:22:35;100159.63;;;13.71;83.12
3082;BME280;1551;51.046;7.010;2023-04-23T00:25:24;100158.06;;;13.65;83.65
3082;BME280;1551;51.046;7.010;2023-04-23T00:28:13;100159.94;;;13.60;83.63
3082;BME280;1551;51.046;7.010;2023-04-23T00:31:03;100149.84;;;13.54;84.40
3082;BME280;1551;51.046;7.010;2023-04-23T00:33:52;100160.84;;;13.59;84.57
3082;BME280;1551;51.046;7.010;2023-04-23T00:36:42;100156.88;;;13.49;85.39
3082;BME280;1551;51.046;7.010;2023-04-23T00:39:31;100153.31;;;13.53;85.44
3082;BME280;1551;51.046;7.010;2023-04-23T00:42:20;100155.38;;;13.42;85.99
3082;BME280;1551;51.046;7.010;2023-04-23T00:45:10;100143.25;;;13.46;86.46
3082;BME280;1551;51.046;7.010;2023-04-23T00:48:01;100140.88;;;13.40;86.79
3082;BME280;1551;51.046;7.010;2023-04-23T00:50:58;100144.38;;;13.37;86.46
3082;BME280;1551;51.046;7.010;2023-04-23T00:53:48;100134.75;;;13.44;86.49
3082;BME280;1551;51.046;7.010;2023-04-23T00:56:37;100142.28;;;13.50;86.19
3082;BME280;1551;51.046;7.010;2023-04-23T00:59:27;100144.09;;;13.46;85.95
3082;BME280;1551;51.046;7.010;2023-04-23T01:02:17;100142.75;;;13.35;86.82
3082;BME280;1551;51.046;7.010;2023-04-23T01:05:06;100148.88;;;13.31;86.61
3082;BME280;1551;51.046;7.010;2023-04-23T01:07:57;100145.44;;;13.30;86.33
3082;BME280;1551;51.046;7.010;2023-04-23T01:10:46;100141.22;;;13.29;85.97
3082;BME280;1551;51.046;7.010;2023-04-23T01:13:36;100148.94;;;13.28;86.42
3082;BME280;1551;51.046;7.010;2023-04-23T01:16:25;100152.50;;;13.24;86.75
3082;BME280;1551;51.046;7.010;2023-04-23T01:19:15;100139.00;;;13.17;87.22
3082;BME280;1551;51.046;7.010;2023-04-23T01:22:12;100133.88;;;13.16;86.72
3082;BME280;1551;51.046;7.010;2023-04-23T01:25:02;100140.06;;;13.10;87.67
3082;BME280;1551;51.046;7.010;2023-04-23T01:27:51;100130.78;;;13.04;87.49
3082;BME280;1551;51.046;7.010;2023-04-23T01:30:42;100133.47;;;13.00;87.10
3082;BME280;1551;51.046;7.010;2023-04-23T01:33:32;100139.63;;;12.94;87.23
3082;BME280;1551;51.046;7.010;2023-04-23T01:36:22;100136.22;;;12.94;87.63
3082;BME280;1551;51.046;7.010;2023-04-23T01:39:13;100131.13;;;12.92;87.65
3082;BME280;1551;51.046;7.010;2023-04-23T01:42:02;100141.56;;;12.86;87.87
3082;BME280;1551;51.046;7.010;2023-04-23T01:44:52;100148.91;;;12.69;88.37
3082;BME280;1551;51.046;7.010;2023-04-23T01:47:41;100139.59;;;12.65;89.81
3082;BME280;1551;51.046;7.010;2023-04-23T01:50:30;100138.63;;;12.69;90.12
3082;BME280;1551;51.046;7.010;2023-04-23T01:53:19;100144.47;;;12.74;89.29
3082;BME280;1551;51.046;7.010;2023-04-23T01:56:08;100141.97;;;12.73;88.79
3082;BME280;1551;51.046;7.010;2023-04-23T01:58:58;100135.06;;;12.73;88.46
3082;BME280;1551;51.046;7.010;2023-04-23T02:01:47;100135.94;;;12.74;88.22
3082;BME280;1551;51.046;7.010;2023-04-23T02:04:37;100139.56;;;12.67;88.78
3082;BME280;1551;51.046;7.010;2023-04-23T02:07:27;100131.97;;;12.62;88.97
3082;BME280;1551;51.046;7.010;2023-04-23T02:10:16;100132.91;;;12.60;89.15
3082;BME280;1551;51.046;7.010;2023-04-23T02:13:06;100132.91;;;12.60;88.88
3082;BME280;1551;51.046;7.010;2023-04-23T02:15:55;100127.97;;;12.52;88.80
3082;BME280;1551;51.046;7.010;2023-04-23T02:18:44;100128.78;;;12.54;89.06
3082;BME280;1551;51.046;7.010;2023-04-23T02:21:33;100122.88;;;12.51;89.00
3082;BME280;1551;51.046;7.010;2023-04-23T02:24:22;100134.88;;;12.50;88.96
3082;BME280;1551;51.046;7.010;2023-04-23T02:27:11;100139.31;;;12.43;89.15
3082;BME280;1551;51.046;7.010;2023-04-23T02:29:59;100134.31;;;12.39;89.19
3082;BME280;1551;51.046;7.010;2023-04-23T02:32:48;100133.53;;;12.37;89.39
3082;BME280;1551;51.046;7.010;2023-04-23T02:35:37;100133.66;;;12.31;89.49
3082;BME280;1551;51.046;7.010;2023-04-23T02:38:26;100123.53;;;12.26;89.56
3082;BME280;1551;51.046;7.010;2023-04-23T02:41:15;100127.84;;;12.24;90.03
3082;BME280;1551;51.046;7.010;2023-04-23T02:44:04;100126.22;;;12.22;90.09
3082;BME280;1551;51.046;7.010;2023-04-23T02:46:53;100124.72;;;12.13;90.05
3082;BME280;1551;51.046;7.010;2023-04-23T02:49:42;100116.38;;;12.05;90.39
3082;BME280;1551;51.046;7.010;2023-04-23T02:52:32;100119.91;;;12.01;90.43
3082;BME280;1551;51.046;7.010;2023-04-23T02:55:21;100123.44;;;11.97;90.37
3082;BME280;1551;51.046;7.010;2023-04-23T02:58:13;100120.06;;;11.95;90.95
3082;BME280;1551;51.046;7.010;2023-04-23T03:01:04;100113.25;;;11.94;91.01
3082;BME280;1551;51.046;7.010;2023-04-23T03:03:53;100120.81;;;12.00;91.13
3082;BME280;1551;51.046;7.010;2023-04-23T03:06:42;100119.84;;;12.04;91.16
3082;BME280;1551;51.046;7.010;2023-04-23T03:09:31;100117.38;;;12.00;90.66
3082;BME280;1551;51.046;7.010;2023-04-23T03:12:20;100114.91;;;11.97;90.51
3082;BME280;1551;51.046;7.010;2023-04-23T03:15:10;100109.84;;;11.94;91.11
3082;BME280;1551;51.046;7.010;2023-04-23T03:17:59;100103.03;;;11.93;91.03
3082;BME280;1551;51.046;7.010;2023-04-23T03:20:49;100104.81;;;11.89;91.00
3082;BME280;1551;51.046;7.010;2023-04-23T03:23:39;100108.22;;;11.90;91.24
3082;BME280;1551;51.046;7.010;2023-04-23T03:26:28;100105.84;;;11.82;91.20
3082;BME280;1551;51.046;7.010;2023-04-23T03:29:17;100102.56;;;11.77;90.96
3082;BME280;1551;51.046;7.010;2023-04-23T03:32:06;100095.72;;;11.78;91.28
3082;BME280;1551;51.046;7.010;2023-04-23T03:34:55;100101.72;;;11.77;91.11
3082;BME280;1551;51.046;7.010;2023-04-23T03:37:46;100104.19;;;11.80;91.22
3082;BME280;1551;51.046;7.010;2023-04-23T03:40:36;100096.50;;;11.80;91.38
3082;BME280;1551;51.046;7.010;2023-04-23T03:43:26;100101.56;;;11.83;91.31
3082;BME280;1551;51.046;7.010;2023-04-23T03:46:25;100092.22;;;11.80;91.11
3082;BME280;1551;51.046;7.010;2023-04-23T03:49:14;100097.31;;;11.82;90.80
3082;BME280;1551;51.046;7.010;2023-04-23T03:52:04;100087.06;;;11.82;91.09
3082;BME280;1551;51.046;7.010;2023-04-23T03:54:55;100092.16;;;11.83;90.80
3082;BME280;1551;51.046;7.010;2023-04-23T03:57:50;100089.66;;;11.80;91.01
3082;BME280;1551;51.046;7.010;2023-04-23T04:00:45;100086.47;;;11.70;91.25
3082;BME280;1551;51.046;7.010;2023-04-23T04:03:34;100090.75;;;11.71;91.46
3082;BME280;1551;51.046;7.010;2023-04-23T04:06:23;100099.97;;;11.79;91.49
3082;BME280;1551;51.046;7.010;2023-04-23T04:09:12;100093.03;;;11.82;91.57
3082;BME280;1551;51.046;7.010;2023-04-23T04:12:01;100093.72;;;11.89;91.61
3082;BME280;1551;51.046;7.010;2023-04-23T04:14:50;100095.28;;;11.94;91.48
3082;BME280;1551;51.046;7.010;2023-04-23T04:17:39;100090.91;;;11.99;91.24
3082;BME280;1551;51.046;7.010;2023-04-23T04:20:28;100090.78;;;12.04;91.08
3082;BME280;1551;51.046;7.010;2023-04-23T04:23:17;100083.94;;;12.03;90.91
3082;BME280;1551;51.046;7.010;2023-04-23T04:26:06;100077.88;;;12.07;91.12
3082;BME280;1551;51.046;7.010;2023-04-23T04:28:56;100085.38;;;12.14;91.09
3082;BME280;1551;51.046;7.010;2023-04-23T04:31:46;100086.94;;;12.20;91.14
3082;BME280;1551;51.046;7.010;2023-04-23T04:34:36;100080.88;;;12.22;90.94
3082;BME280;1551;51.046;7.010;2023-04-23T04:37:26;100082.16;;;12.38;91.86
3082;BME280;1551;51.046;7.010;2023-04-23T04:40:16;100087.22;;;12.71;92.31
3082;BME280;1551;51.046;7.010;2023-04-23T04:43:04;100086.38;;;13.01;91.25
3082;BME280;1551;51.046;7.010;2023-04-23T04:45:54;100086.00;;;13.13;90.14
3082;BME280;1551;51.046;7.010;2023-04-23T04:48:43;100081.84;;;13.09;88.00
3082;BME280;1551;51.046;7.010;2023-04-23T04:51:32;100085.66;;;12.96;87.31
3082;BME280;1551;51.046;7.010;2023-04-23T04:54:21;100083.38;;;12.85;87.35
3082;BME280;1551;51.046;7.010;2023-04-23T04:57:10;100086.06;;;12.82;87.06
3082;BME280;1551;51.046;7.010;2023-04-23T05:00:01;100090.28;;;12.83;87.70
3082;BME280;1551;51.046;7.010;2023-04-23T05:02:51;100092.81;;;12.85;87.81
3082;BME280;1551;51.046;7.010;2023-04-23T05:05:40;100105.50;;;12.91;87.86
3082;BME280;1551;51.046;7.010;2023-04-23T05:08:29;100100.28;;;12.92;88.15
3082;BME280;1551;51.046;7.010;2023-04-23T05:11:18;100103.66;;;12.94;88.11
3082;BME280;1551;51.046;7.010;2023-04-23T05:14:07;100096.19;;;12.87;88.20
3082;BME280;1551;51.046;7.010;2023-04-23T05:16:56;100101.28;;;12.88;88.50
3082;BME280;1551;51.046;7.010;2023-04-23T05:19:45;100096.84;;;12.93;88.49
3082;BME280;1551;51.046;7.010;2023-04-23T05:22:35;100102.84;;;12.94;88.58
3082;BME280;1551;51.046;7.010;2023-04-23T05:25:24;100100.06;;;13.00;88.28
3082;BME280;1551;51.046;7.010;2023-04-23T05:28:13;100095.00;;;12.98;88.72
3082;BME280;1551;51.046;7.010;2023-04-23T05:31:03;100097.50;;;13.00;88.79
3082;BME280;1551;51.046;7.010;2023-04-23T05:33:52;100104.19;;;13.07;88.50
3082;BME280;1551;51.046;7.010;2023-04-23T05:36:40;100098.72;;;13.18;88.30
3082;BME280;1551;51.046;7.010;2023-04-23T05:39:29;100099.66;;;13.15;88.16
3082;BME280;1551;51.046;7.010;2023-04-23T05:42:18;100100.41;;;13.19;88.51
3082;BME280;1551;51.046;7.010;2023-04-23T05:45:08;100094.28;;;13.23;88.50
3082;BME280;1551;51.046;7.010;2023-04-23T05:47:57;100101.03;;;13.27;88.31
3082;BME280;1551;51.046;7.010;2023-04-23T05:50:46;100094.81;;;13.34;88.19
3082;BME280;1551;51.046;7.010;2023-04-23T05:53:37;100097.25;;;13.37;88.06
3082;BME280;1551;51.046;7.010;2023-04-23T05:56:26;100095.16;;;13.49;88.14
3082;BME280;1551;51.046;7.010;2023-04-23T05:59:15;100107.22;;;13.47;87.49
3082;BME280;1551;51.046;7.010;2023-04-23T06:02:04;100096.00;;;13.50;87.51
3082;BME280;1551;51.046;7.010;2023-04-23T06:04:53;100107.09;;;13.52;87.59
3082;BME280;1551;51.046;7.010;2023-04-23T06:07:42;100103.34;;;13.62;87.32
3082;BME280;1551;51.046;7.010;2023-04-23T06:10:31;100097.16;;;13.67;87.04
3082;BME280;1551;51.046;7.010;2023-04-23T06:13:20;100102.13;;;13.72;86.98
3082;BME280;1551;51.046;7.010;2023-04-23T06:16:09;100096.03;;;13.76;86.33
3082;BME280;1551;51.046;7.010;2023-04-23T06:18:57;100103.63;;;13.79;86.15
3082;BME280;1551;51.046;7.010;2023-04-23T06:21:46;100099.09;;;13.87;86.40
3082;BME280;1551;51.046;7.010;2023-04-23T06:24:35;100095.41;;;13.94;85.92
3082;BME280;1551;51.046;7.010;2023-04-23T06:27:24;100090.19;;;13.97;85.93
3082;BME280;1551;51.046;7.010;2023-04-23T06:30:15;100083.94;;;14.04;85.63
3082;BME280;1551;51.046;7.010;2023-04-23T06:33:04;100092.13;;;14.15;85.33
3082;BME280;1551;51.046;7.010;2023-04-23T06:35:53;100090.25;;;14.19;85.29
3082;BME280;1551;51.046;7.010;2023-04-23T06:38:42;100094.38;;;14.24;85.02
3082;BME280;1551;51.046;7.010;2023-04-23T06:41:32;100090.78;;;14.28;84.84
3082;BME280;1551;51.046;7.010;2023-04-23T06:44:32;100087.25;;;14.32;84.65
3082;BME280;1551;51.046;7.010;2023-04-23T06:47:22;100097.97;;;14.45;84.76
3082;BME280;1551;51.046;7.010;2023-04-23T06:50:11;100100.47;;;14.46;84.37
3082;BME280;1551;51.046;7.010;2023-04-23T06:53:00;100099.25;;;14.57;83.97
3082;BME280;1551;51.046;7.010;2023-04-23T06:55:49;100100.63;;;14.67;83.92
3082;BME280;1551;51.046;7.010;2023-04-23T06:58:39;100101.50;;;14.66;83.05
3082;BME280;1551;51.046;7.010;2023-04-23T07:01:37;100095.53;;;14.65;82.88
3082;BME280;1551;51.046;7.010;2023-04-23T07:04:26;100088.34;;;14.73;82.90
3082;BME280;1551;51.046;7.010;2023-04-23T07:07:15;100068.84;;;14.89;82.93
3082;BME280;1551;51.046;7.010;2023-04-23T07:10:04;100070.00;;;15.04;82.39
3082;BME280;1551;51.046;7.010;2023-04-23T07:12:53;100068.69;;;15.15;81.90
3082;BME280;1551;51.046;7.010;2023-04-23T07:15:44;100074.91;;;15.33;80.90
3082;BME280;1551;51.046;7.010;2023-04-23T07:18:33;100070.84;;;15.49;80.40
3082;BME280;1551;51.046;7.010;2023-04-23T07:21:22;100069.31;;;15.65;79.48
3082;BME280;1551;51.046;7.010;2023-04-23T07:24:11;100064.06;;;15.89;79.27
3082;BME280;1551;51.046;7.010;2023-04-23T07:27:00;100060.69;;;16.27;78.40
3082;BME280;1551;51.046;7.010;2023-04-23T07:29:50;100066.75;;;16.65;76.15
3082;BME280;1551;51.046;7.010;2023-04-23T07:32:38;100063.91;;;16.52;75.93
3082;BME280;1551;51.046;7.010;2023-04-23T07:35:27;100023.69;;;16.26;76.27
3082;BME280;1551;51.046;7.010;2023-04-23T07:38:17;100054.41;;;16.71;75.35
3082;BME280;1551;51.046;7.010;2023-04-23T07:41:06;100051.84;;;16.90;74.37
3082;BME280;1551;51.046;7.010;2023-04-23T07:43:55;100051.84;;;17.26;73.37
3082;BME280;1551;51.046;7.010;2023-04-23T07:46:44;100045.47;;;17.33;71.99
3082;BME280;1551;51.046;7.010;2023-04-23T07:49:33;100062.69;;;17.34;71.68
3082;BME280;1551;51.046;7.010;2023-04-23T07:52:22;100059.28;;;17.14;71.19
3082;BME280;1551;51.046;7.010;2023-04-23T07:55:11;100057.53;;;17.15;70.37
3082;BME280;1551;51.046;7.010;2023-04-23T07:58:00;100042.81;;;16.98;70.89
3082;BME280;1551;51.046;7.010;2023-04-23T08:00:49;100031.91;;;16.92;71.50
3082;BME280;1551;51.046;7.010;2023-04-23T08:03:38;100027.34;;;17.15;71.42
3082;BME280;1551;51.046;7.010;2023-04-23T08:06:27;100044.63;;;17.68;69.46
3082;BME280;1551;51.046;7.010;2023-04-23T08:09:18;100035.41;;;18.46;67.75
3082;BME280;1551;51.046;7.010;2023-04-23T08:12:07;100037.88;;;18.65;65.97
3082;BME280;1551;51.046;7.010;2023-04-23T08:14:56;100041.31;;;19.12;64.43
3082;BME280;1551;51.046;7.010;2023-04-23T08:17:54;100046.13;;;18.56;63.62
3082;BME280;1551;51.046;7.010;2023-04-23T08:20:43;100037.91;;;18.15;64.65
3082;BME280;1551;51.046;7.010;2023-04-23T08:23:31;100041.09;;;18.53;63.59
3082;BME280;1551;51.046;7.010;2023-04-23T08:26:20;100035.78;;;19.03;61.95
3082;BME280;1551;51.046;7.010;2023-04-23T08:29:09;100037.69;;;18.99;61.41
3082;BME280;1551;51.046;7.010;2023-04-23T08:31:58;100046.00;;;18.59;61.87
3082;BME280;1551;51.046;7.010;2023-04-23T08:34:47;100043.84;;;18.50;62.53
3082;BME280;1551;51.046;7.010;2023-04-23T08:37:36;100038.03;;;18.62;62.49
3082;BME280;1551;51.046;7.010;2023-04-23T08:40:30;100030.84;;;18.51;61.47
3082;BME280;1551;51.046;7.010;2023-04-23T08:43:19;100035.44;;;18.62;60.81
3082;BME280;1551;51.046;7.010;2023-04-23T08:46:10;100026.09;;;18.91;60.66
3082;BME280;1551;51.046;7.010;2023-04-23T08:49:01;100032.16;;;19.52;59.44
3082;BME280;1551;51.046;7.010;2023-04-23T08:51:52;100031.50;;;19.78;56.90
3082;BME280;1551;51.046;7.010;2023-04-23T08:54:46;100030.44;;;19.67;57.74
3082;BME280;1551;51.046;7.010;2023-04-23T08:57:38;100027.00;;;19.66;56.66
3082;BME280;1551;51.046;7.010;2023-04-23T09:00:28;100026.63;;;19.72;57.08
3082;BME280;1551;51.046;7.010;2023-04-23T09:03:18;100024.41;;;19.66;57.97
3082;BME280;1551;51.046;7.010;2023-04-23T09:06:08;100025.56;;;20.34;57.41
3082;BME280;1551;51.046;7.010;2023-04-23T09:08:58;100018.72;;;20.74;55.85
3082;BME280;1551;51.046;7.010;2023-04-23T09:11:47;100015.41;;;20.58;54.77
3082;BME280;1551;51.046;7.010;2023-04-23T09:14:36;100019.56;;;20.18;55.49
3082;BME280;1551;51.046;7.010;2023-04-23T09:17:27;100007.59;;;20.02;55.93
3082;BME280;1551;51.046;7.010;2023-04-23T09:20:17;100007.56;;;19.87;56.27
3082;BME280;1551;51.046;7.010;2023-04-23T09:23:06;100003.19;;;20.32;55.44
3082;BME280;1551;51.046;7.010;2023-04-23T09:25:56;99983.53;;;20.69;54.47
3082;BME280;1551;51.046;7.010;2023-04-23T09:28:48;99996.56;;;21.09;53.47
3082;BME280;1551;51.046;7.010;2023-04-23T09:31:37;100003.22;;;21.13;53.14
3082;BME280;1551;51.046;7.010;2023-04-23T09:34:26;99995.47;;;21.26;52.54
3082;BME280;1551;51.046;7.010;2023-04-23T09:37:17;99994.50;;;21.14;52.54
3082;BME280;1551;51.046;7.010;2023-04-23T09:40:07;99990.69;;;21.33;52.57
3082;BME280;1551;51.046;7.010;2023-04-23T09:43:02;99985.75;;;21.01;53.16
3082;BME280;1551;51.046;7.010;2023-04-23T09:45:52;99980.31;;;20.92;52.47
3082;BME280;1551;51.046;7.010;2023-04-23T09:48:42;99985.78;;;20.87;52.31
3082;BME280;1551;51.046;7.010;2023-04-23T09:51:31;99984.94;;;20.60;52.99
3082;BME280;1551;51.046;7.010;2023-04-23T09:54:21;99971.03;;;20.47;52.96
3082;BME280;1551;51.046;7.010;2023-04-23T09:57:11;99977.63;;;20.38;52.37
3082;BME280;1551;51.046;7.010;2023-04-23T10:00:12;99970.81;;;20.64;51.62
3082;BME280;1551;51.046;7.010;2023-04-23T10:03:03;99963.19;;;21.02;50.64
3082;BME280;1551;51.046;7.010;2023-04-23T10:05:53;99962.25;;;21.30;50.24
3082;BME280;1551;51.046;7.010;2023-04-23T10:08:43;99957.38;;;21.38;49.75
3082;BME280;1551;51.046;7.010;2023-04-23T10:11:32;99954.84;;;21.36;50.17
3082;BME280;1551;51.046;7.010;2023-04-23T10:14:22;99952.13;;;20.98;49.50
3082;BME280;1551;51.046;7.010;2023-04-23T10:17:11;99947.66;;;20.74;49.64
3082;BME280;1551;51.046;7.010;2023-04-23T10:20:00;99952.22;;;20.29;50.45
3082;BME280;1551;51.046;7.010;2023-04-23T10:22:52;99954.69;;;20.17;51.34
3082;BME280;1551;51.046;7.010;2023-04-23T10:25:41;99954.13;;;20.12;51.32
3082;BME280;1551;51.046;7.010;2023-04-23T10:28:31;99944.28;;;20.03;50.93
3082;BME280;1551;51.046;7.010;2023-04-23T10:31:21;99951.03;;;19.63;51.38
3082;BME280;1551;51.046;7.010;2023-04-23T10:34:11;99952.72;;;19.64;51.35
3082;BME280;1551;51.046;7.010;2023-04-23T10:37:00;99950.44;;;19.87;51.01
3082;BME280;1551;51.046;7.010;2023-04-23T10:39:53;99941.13;;;20.12;49.96
3082;BME280;1551;51.046;7.010;2023-04-23T10:42:44;99931.88;;;20.36;49.13
3082;BME280;1551;51.046;7.010;2023-04-23T10:45:34;99941.63;;;20.46;47.91
3082;BME280;1551;51.046;7.010;2023-04-23T10:48:22;99933.94;;;20.84;46.57
3082;BME280;1551;51.046;7.010;2023-04-23T10:51:11;99940.41;;;20.79;46.70
3082;BME280;1551;51.046;7.010;2023-04-23T10:54:03;99930.22;;;20.35;47.13
3082;BME280;1551;51.046;7.010;2023-04-23T10:56:57;99927.41;;;19.96;47.66
3082;BME280;1551;51.046;7.010;2023-04-23T10:59:52;99926.94;;;19.61;47.69
3082;BME280;1551;51.046;7.010;2023-04-23T11:02:42;99924.16;;;19.50;47.49
3082;BME280;1551;51.046;7.010;2023-04-23T11:05:34;99921.19;;;19.70;47.17
3082;BME280;1551;51.046;7.010;2023-04-23T11:08:23;99925.81;;;20.07;46.62
3082;BME280;1551;51.046;7.010;2023-04-23T11:11:12;99916.13;;;20.51;46.00
3082;BME280;1551;51.046;7.010;2023-04-23T11:14:10;99917.91;;;21.81;44.24
3082;BME280;1551;51.046;7.010;2023-04-23T11:16:59;99914.22;;;22.94;41.08
3082;BME280;1551;51.046;7.010;2023-04-23T11:20:09;99913.94;;;22.86;39.47
3082;BME280;1551;51.046;7.010;2023-04-23T11:22:58;99892.53;;;23.05;39.12
3082;BME280;1551;51.046;7.010;2023-04-23T11:25:47;99894.22;;;23.52;38.66
3082;BME280;1551;51.046;7.010;2023-04-23T11:28:37;99890.41;;;23.10;38.77
3082;BME280;1551;51.046;7.010;2023-04-23T11:31:27;99888.13;;;21.85;41.20
3082;BME280;1551;51.046;7.010;2023-04-23T11:34:16;99887.69;;;21.29;42.25
3082;BME280;1551;51.046;7.010;2023-04-23T11:37:09;99878.59;;;20.70;43.01
3082;BME280;1551;51.046;7.010;2023-04-23T11:40:04;99868.72;;;20.75;43.74
3082;BME280;1551;51.046;7.010;2023-04-23T11:42:55;99883.75;;;20.96;42.69
3082;BME280;1551;51.046;7.010;2023-04-23T11:45:45;99871.63;;;21.09;42.16
3082;BME280;1551;51.046;7.010;2023-04-23T11:48:34;99862.28;;;21.32;41.00
3082;BME280;1551;51.046;7.010;2023-04-23T11:51:25;99865.41;;;21.62;39.70
3082;BME280;1551;51.046;7.010;2023-04-23T11:54:14;99853.38;;;22.10;38.88
3082;BME280;1551;51.046;7.010;2023-04-23T11:57:04;99849.75;;;23.30;37.09
3082;BME280;1551;51.046;7.010;2023-04-23T11:59:53;99854.16;;;23.29;36.58
3082;BME280;1551;51.046;7.010;2023-04-23T12:02:52;99851.44;;;22.01;38.98
3082;BME280;1551;51.046;7.010;2023-04-23T12:05:43;99857.81;;;21.21;41.34
3082;BME280;1551;51.046;7.010;2023-04-23T12:08:33;99846.13;;;21.90;41.46
3082;BME280;1551;51.046;7.010;2023-04-23T12:11:28;99845.28;;;22.86;39.27
3082;BME280;1551;51.046;7.010;2023-04-23T12:14:23;99838.03;;;23.35;38.39
3082;BME280;1551;51.046;7.010;2023-04-23T12:17:14;99838.88;;;23.01;37.89
3082;BME280;1551;51.046;7.010;2023-04-23T12:20:04;99825.69;;;23.70;37.42
3082;BME280;1551;51.046;7.010;2023-04-23T12:22:54;99816.22;;;24.34;36.00
3082;BME280;1551;51.046;7.010;2023-04-23T12:25:44;99815.03;;;24.70;35.20
3082;BME280;1551;51.046;7.010;2023-04-23T12:28:33;99809.38;;;24.22;36.60
3082;BME280;1551;51.046;7.010;2023-04-23T12:31:27;99808.13;;;25.01;34.28
3082;BME280;1551;51.046;7.010;2023-04-23T12:34:18;99816.19;;;24.45;34.99
3082;BME280;1551;51.046;7.010;2023-04-23T12:37:08;99806.44;;;25.00;34.33
3082;BME280;1551;51.046;7.010;2023-04-23T12:39:57;99821.69;;;24.95;34.02
3082;BME280;1551;51.046;7.010;2023-04-23T12:42:47;99805.00;;;24.54;33.37
3082;BME280;1551;51.046;7.010;2023-04-23T12:45:36;99795.84;;;25.01;32.63
3082;BME280;1551;51.046;7.010;2023-04-23T12:48:26;99794.50;;;25.37;32.55
3082;BME280;1551;51.046;7.010;2023-04-23T12:51:15;99784.66;;;25.90;32.29
3082;BME280;1551;51.046;7.010;2023-04-23T12:54:04;99784.63;;;25.71;31.13
3082;BME280;1551;51.046;7.010;2023-04-23T12:56:54;99794.00;;;24.40;33.12
3082;BME280;1551;51.046;7.010;2023-04-23T12:59:43;99789.63;;;24.61;33.83
3082;BME280;1551;51.046;7.010;2023-04-23T13:02:32;99777.13;;;25.06;32.92
3082;BME280;1551;51.046;7.010;2023-04-23T13:05:21;99779.06;;;24.20;32.70
3082;BME280;1551;51.046;7.010;2023-04-23T13:08:10;99773.75;;;24.42;32.87
3082;BME280;1551;51.046;7.010;2023-04-23T13:10:59;99769.72;;;24.06;32.88
3082;BME280;1551;51.046;7.010;2023-04-23T13:13:48;99771.03;;;24.01;32.94
3082;BME280;1551;51.046;7.010;2023-04-23T13:16:38;99765.84;;;23.67;33.64
3082;BME280;1551;51.046;7.010;2023-04-23T13:19:27;99753.03;;;23.53;33.46
3082;BME280;1551;51.046;7.010;2023-04-23T13:22:16;99740.91;;;23.63;33.86
3082;BME280;1551;51.046;7.010;2023-04-23T13:25:14;99742.34;;;23.23;34.72
3082;BME280;1551;51.046;7.010;2023-04-23T13:28:03;99746.91;;;22.51;35.82
3082;BME280;1551;51.046;7.010;2023-04-23T13:30:52;99728.88;;;22.14;37.02
3082;BME280;1551;51.046;7.010;2023-04-23T13:33:41;99730.41;;;21.92;36.93
3082;BME280;1551;51.046;7.010;2023-04-23T13:36:30;99722.63;;;21.80;37.75
3082;BME280;1551;51.046;7.010;2023-04-23T13:39:19;99721.81;;;21.92;37.35
3082;BME280;1551;51.046;7.010;2023-04-23T13:42:09;99734.00;;;21.66;37.68
3082;BME280;1551;51.046;7.010;2023-04-23T13:44:58;99718.19;;;21.20;38.30
3082;BME280;1551;51.046;7.010;2023-04-23T13:47:47;99702.25;;;21.25;38.41
3082;BME280;1551;51.046;7.010;2023-04-23T13:50:36;99715.06;;;21.64;38.00
3082;BME280;1551;51.046;7.010;2023-04-23T13:53:26;99704.13;;;21.59;37.79
3082;BME280;1551;51.046;7.010;2023-04-23T13:56:15;99689.88;;;21.52;38.05
3082;BME280;1551;51.046;7.010;2023-04-23T13:59:04;99694.84;;;21.32;38.64
3082;BME280;1551;51.046;7.010;2023-04-23T14:01:53;99684.56;;;20.92;38.55
3082;BME280;1551;51.046;7.010;2023-04-23T14:04:42;99680.94;;;20.70;39.02
3082;BME280;1551;51.046;7.010;2023-04-23T14:07:31;99675.84;;;20.81;38.63
3082;BME280;1551;51.046;7.010;2023-04-23T14:10:20;99661.25;;;20.66;38.59
3082;BME280;1551;51.046;7.010;2023-04-23T14:13:09;99675.78;;;20.30;39.22
3082;BME280;1551;51.046;7.010;2023-04-23T14:15:58;99671.94;;;19.97;38.56
3082;BME280;1551;51.046;7.010;2023-04-23T14:18:47;99658.41;;;19.65;36.87
3082;BME280;1551;51.046;7.010;2023-04-23T14:21:36;99653.28;;;19.77;36.00
3082;BME280;1551;51.046;7.010;2023-04-23T14:24:43;99628.28;;;19.89;35.47
3082;BME280;1551;51.046;7.010;2023-04-23T14:27:38;99618.25;;;20.10;36.40
3082;BME280;1551;51.046;7.010;2023-04-23T14:30:28;99624.03;;;20.27;37.01
3082;BME280;1551;51.046;7.010;2023-04-23T14:33:18;99622.34;;;20.26;38.82
3082;BME280;1551;51.046;7.010;2023-04-23T14:36:07;99641.69;;;19.96;41.51
3082;BME280;1551;51.046;7.010;2023-04-23T14:38:56;99619.25;;;19.95;42.75
3082;BME280;1551;51.046;7.010;2023-04-23T14:41:49;99618.84;;;20.01;43.86
3082;BME280;1551;51.046;7.010;2023-04-23T14:44:39;99611.06;;;19.88;44.37
3082;BME280;1551;51.046;7.010;2023-04-23T14:47:28;99609.63;;;19.70;44.21
3082;BME280;1551;51.046;7.010;2023-04-23T14:50:17;99606.09;;;19.71;44.36
3082;BME280;1551;51.046;7.010;2023-04-23T14:53:05;99599.66;;;19.76;44.63
3082;BME280;1551;51.046;7.010;2023-04-23T14:55:57;99592.78;;;19.63;44.68
3082;BME280;1551;51.046;7.010;2023-04-23T14:58:46;99593.78;;;19.48;45.45
3082;BME280;1551;51.046;7.010;2023-04-23T15:01:35;99596.25;;;19.49;45.76
3082;BME280;1551;51.046;7.010;2023-04-23T15:04:25;99586.06;;;19.46;46.29
3082;BME280;1551;51.046;7.010;2023-04-23T15:07:14;99565.78;;;19.53;46.57
3082;BME280;1551;51.046;7.010;2023-04-23T15:10:04;99576.72;;;19.44;46.75
3082;BME280;1551;51.046;7.010;2023-04-23T15:13:02;99584.44;;;19.31;47.24
3082;BME280;1551;51.046;7.010;2023-04-23T15:15:55;99575.81;;;19.31;47.74
3082;BME280;1551;51.046;7.010;2023-04-23T15:18:47;99570.63;;;19.31;48.32